Aérodrome :
LOGIN :

S'inscrire | Disclaimer

   EN    FR    IT 

 










Légende :    VFR   VFR Marginal   IFR   IFR Intensif   IFR Très Intensif
Visi : 
Plafond : 
>= 8 km
>= 3000ft
5 à 8 km
1000 à 3000 ft
1500m à 5 km
500 à 1000 ft
800 à 1500m
200 à 500 ft
< 800m
< 200 ft
Symboles :   Orages  Brouillard  Fortes neiges  Fortes précipitations  Vent > 20 kt
SIGMETs :   Divers  Orages  Givrage  Turbulence  Onde Orograph.  Cendres Volcan.







- Altitude de l'aérodrome : 580 ft
- Voir les cartes d'approche


LFOA - Avord

DERNIER METAR :
  • 211530Z AUTO 03008KT 350V070 CAVOK 29/14 Q1017 NOSIG

METARs EXPIRÉS :
  • 211500Z AUTO 04007G18KT 360V080 CAVOK 29/14 Q1018 NOSIG
  • 211430Z AUTO 01008KT 290V060 CAVOK 29/14 Q1018 NOSIG
  • 211400Z AUTO 04006KT 360V110 CAVOK 29/14 Q1018 NOSIG
  • 211330Z AUTO 02008KT 320V060 9999 FEW048 28/14 Q1019 NOSIG
  • 211300Z AUTO 06007KT 360V140 9999 FEW047 28/15 Q1019 NOSIG

TAF AMD TAF LFOA
Valide du 21 à 05h jusqu'au 22 à 03h UTC


210520Z 2105/2203 VRB02KT CAVOK
BECMG 2107/2109 04010KT
Pas de NOTAMs connus pour ce terrain.



MET'MAP, la Météo Aéronautique d'un coup d'oeil ! - Copyright ORBIFLY Décembre 2007 - Disclaimer

ORBIFLY MET'MAP TEAM :

Programmation & Développement : Alexandra Zaïnal
Conception & Développement : Baudouin d'Aumeries
Co-Programmation & Développement : Marc-Olivier Méhu
Soutien technique & logistique : Manuel Goepfert

Contact : metmap@orbifly.com




SOURCES & CREDITS :

   NOAA